Time;durP1;ratioP1;P1;durP2;ratioP2;P2;SDS_P1;SDS_P2;PMS_P1;PMS_P2;Temp;Humidity;BMP_temperature;BMP_pressure;BME280_temperature;BME280_humidity;BME280_pressure;Samples;Min_cycle;Max_cycle;Signal;HPM_P1;HPM_P2
2023/07/03 02:44:54;;;;;;;4.00;3.40;;;;;;;30.12;78.24;99953.59;106518;1257;64073;-81
2023/07/03 02:47:42;;;;;;;4.30;3.60;;;;;;;30.31;77.03;99947.29;106494;1254;61397;-80
2023/07/03 02:50:32;;;;;;;4.20;3.50;;;;;;;30.22;77.80;99950.15;106646;1254;61339;-82
2023/07/03 02:53:22;;;;;;;4.60;3.70;;;;;;;30.09;78.79;99949.69;106425;1254;66844;-81
2023/07/03 02:56:11;;;;;;;4.30;3.90;;;;;;;30.12;78.97;99955.13;106365;1253;61320;-81
2023/07/03 02:59:01;;;;;;;5.50;3.70;;;;;;;30.24;78.40;99958.66;106734;1251;63973;-81
2023/07/03 03:01:53;;;;;;;4.00;3.60;;;;;;;30.29;78.60;99958.92;106422;1256;61256;-81
2023/07/03 03:04:41;;;;;;;4.20;3.60;;;;;;;30.43;78.93;99965.64;106443;1253;61250;-84
2023/07/03 03:07:29;;;;;;;5.70;3.60;;;;;;;30.52;78.52;99965.88;106184;1257;66181;-84
2023/07/03 03:10:17;;;;;;;4.60;3.80;;;;;;;30.56;78.39;99961.30;106441;1252;61275;-81
2023/07/03 03:13:05;;;;;;;6.60;3.70;;;;;;;30.59;78.62;99969.48;106213;1253;64495;-85
2023/07/03 03:15:54;;;;;;;5.10;3.80;;;;;;;30.54;79.35;99970.59;106138;1260;61210;-80
2023/07/03 03:18:42;;;;;;;5.50;4.00;;;;;;;30.61;78.68;99978.54;106610;1253;61211;-84
2023/07/03 03:21:32;;;;;;;4.40;3.70;;;;;;;30.67;77.95;99985.05;106298;1257;65970;-84
2023/07/03 03:24:21;;;;;;;5.40;4.00;;;;;;;30.71;77.86;99980.71;106378;1253;61253;-84
2023/07/03 03:27:08;;;;;;;5.50;4.40;;;;;;;30.71;78.05;99985.21;106465;1253;64060;-84
2023/07/03 03:29:56;;;;;;;6.40;4.30;;;;;;;30.74;77.57;99985.09;106488;1254;61344;-81
2023/07/03 03:32:46;;;;;;;6.50;4.10;;;;;;;30.78;77.05;99986.70;106455;1253;61244;-84
2023/07/03 03:35:34;;;;;;;5.30;4.20;;;;;;;30.74;77.71;99990.17;106432;1253;73387;-86
2023/07/03 03:38:22;;;;;;;4.60;4.10;;;;;;;30.70;78.87;99990.23;106364;1254;61352;-84
2023/07/03 03:41:10;;;;;;;5.30;4.10;;;;;;;30.81;77.69;99993.92;106524;1254;63891;-81
2023/07/03 03:44:00;;;;;;;5.10;4.00;;;;;;;30.90;76.92;99997.25;106670;1251;61344;-81
2023/07/03 03:46:48;;;;;;;7.70;4.60;;;;;;;30.89;77.14;99996.23;106749;1254;61208;-84
2023/07/03 03:49:36;;;;;;;5.10;4.10;;;;;;;30.95;77.37;99999.75;106411;1254;65771;-84
2023/07/03 03:52:24;;;;;;;6.20;4.40;;;;;;;31.17;77.03;100005.30;106357;1253;61272;-84
2023/07/03 03:55:13;;;;;;;4.50;4.10;;;;;;;31.27;77.46;100006.57;106522;1251;63813;-84
2023/07/03 03:58:01;;;;;;;5.20;3.80;;;;;;;31.68;75.04;100009.35;106944;1253;61460;-84
2023/07/03 04:00:51;;;;;;;7.60;4.20;;;;;;;32.01;72.20;100003.33;106375;1254;61257;-84
2023/07/03 04:03:40;;;;;;;5.20;4.10;;;;;;;32.09;70.59;100005.68;106607;1251;66039;-85
2023/07/03 04:06:29;;;;;;;5.30;3.80;;;;;;;32.47;66.65;100009.01;106685;1253;61256;-85
2023/07/03 04:09:17;;;;;;;4.10;3.70;;;;;;;32.46;64.46;100016.96;106390;1251;64041;-85
2023/07/03 04:12:06;;;;;;;6.90;3.60;;;;;;;32.33;63.90;100023.15;106591;1251;61151;-85
2023/07/03 04:14:54;;;;;;;3.80;3.40;;;;;;;32.56;62.05;100025.13;102618;1256;5112557;-85
2023/07/03 04:17:42;;;;;;;4.30;3.50;;;;;;;32.53;61.31;100031.33;106393;1253;65714;-79
2023/07/03 04:20:30;;;;;;;4.20;3.80;;;;;;;32.42;62.18;100033.44;106589;1254;61340;-81
2023/07/03 04:23:18;;;;;;;4.10;3.10;;;;;;;32.56;61.80;100040.09;106738;1251;63899;-81
2023/07/03 04:26:06;;;;;;;4.30;3.40;;;;;;;32.48;62.64;100044.94;106636;1254;62237;-81
2023/07/03 04:28:54;;;;;;;4.40;3.40;;;;;;;32.75;60.88;100050.05;106556;1251;61141;-81
2023/07/03 04:31:42;;;;;;;5.00;3.70;;;;;;;32.86;59.72;100051.95;106446;1256;66971;-81
2023/07/03 04:34:30;;;;;;;4.50;3.50;;;;;;;32.82;59.28;100053.18;106475;1253;61369;-82
2023/07/03 04:37:18;;;;;;;4.60;3.80;;;;;;;32.69;60.27;100055.77;106586;1251;63960;-82
2023/07/03 04:40:08;;;;;;;4.50;3.20;;;;;;;32.69;60.97;100059.64;106408;1251;61291;-81
2023/07/03 04:42:57;;;;;;;4.30;3.70;;;;;;;32.77;61.01;100061.16;106418;1252;61179;-82
2023/07/03 04:45:46;;;;;;;4.80;3.80;;;;;;;32.80;60.55;100064.34;106554;1251;73820;-82
2023/07/03 04:48:34;;;;;;;4.10;3.40;;;;;;;32.82;60.54;100067.50;106312;1252;61591;-82
2023/07/03 04:51:23;;;;;;;4.90;4.00;;;;;;;32.88;60.74;100074.79;106456;1251;62774;-82
2023/07/03 04:54:11;;;;;;;5.60;4.00;;;;;;;32.94;60.68;100078.85;106580;1253;61142;-82
2023/07/03 04:56:59;;;;;;;5.20;4.00;;;;;;;32.87;61.68;100076.91;106583;1253;61276;-82
2023/07/03 04:59:48;;;;;;;4.00;3.60;;;;;;;32.96;60.58;100076.04;106544;1251;64847;-82
2023/07/03 05:02:37;;;;;;;3.90;3.10;;;;;;;33.04;59.71;100077.59;106520;1254;61311;-82
2023/07/03 05:05:25;;;;;;;4.40;3.70;;;;;;;33.08;59.23;100079.73;106771;1251;63867;-82
2023/07/03 05:08:16;;;;;;;5.10;3.50;;;;;;;33.12;58.22;100084.74;106345;1252;61326;-82
2023/07/03 05:11:04;;;;;;;5.30;3.70;;;;;;;33.16;57.97;100090.70;106500;1253;61237;-85
2023/07/03 05:13:56;;;;;;;6.90;3.70;;;;;;;33.19;57.81;100090.70;106398;1254;66106;-86
2023/07/03 05:16:45;;;;;;;5.20;4.10;;;;;;;33.19;57.60;100094.84;106390;1252;61251;-85
2023/07/03 05:19:34;;;;;;;5.60;3.70;;;;;;;33.24;57.00;100095.10;106670;1254;63887;-85
2023/07/03 05:22:22;;;;;;;14.20;4.30;;;;;;;33.27;57.54;100093.96;106357;1257;61233;-85
2023/07/03 05:25:11;;;;;;;4.90;3.50;;;;;;;33.32;58.75;100097.63;106340;1253;61159;-85
2023/07/03 05:27:59;;;;;;;4.80;3.50;;;;;;;33.35;57.81;100098.95;106281;1253;74278;-84
2023/07/03 05:30:55;;;;;;;5.20;4.00;;;;;;;33.32;57.58;100102.18;106219;1252;61330;-82
2023/07/03 05:33:43;;;;;;;4.00;3.60;;;;;;;33.37;57.01;100109.23;106416;1255;62805;-84
2023/07/03 05:36:31;;;;;;;4.70;3.70;;;;;;;33.38;57.10;100117.13;106364;1256;61794;-81
2023/07/03 05:39:19;;;;;;;10.90;3.30;;;;;;;33.33;57.92;100120.27;106361;1256;61116;-84
2023/07/03 05:42:08;;;;;;;5.30;3.50;;;;;;;33.38;57.77;100122.96;106572;1253;65923;-81
2023/07/03 05:44:56;;;;;;;3.40;3.00;;;;;;;33.44;56.85;100122.02;106422;1252;61337;-81
2023/07/03 05:47:44;;;;;;;3.80;3.30;;;;;;;33.43;56.37;100119.69;106372;1254;63823;-81
2023/07/03 05:50:32;;;;;;;3.50;3.20;;;;;;;33.52;55.30;100124.13;106307;1254;61310;-85
2023/07/03 05:53:21;;;;;;;4.20;3.30;;;;;;;33.61;55.17;100127.56;106422;1257;61267;-84
2023/07/03 05:56:12;;;;;;;4.00;3.00;;;;;;;33.69;55.54;100131.16;106286;1254;66133;-84
2023/07/03 05:58:59;;;;;;;3.50;3.10;;;;;;;33.76;53.72;100135.52;106410;1256;61240;-81
2023/07/03 06:01:49;;;;;;;5.10;2.80;;;;;;;33.81;53.61;100142.34;106347;1253;64418;-81
2023/07/03 06:04:38;;;;;;;5.20;3.10;;;;;;;33.94;53.03;100143.36;106622;1253;61355;-81
2023/07/03 06:07:27;;;;;;;5.20;3.10;;;;;;;34.09;51.28;100145.13;106944;1253;59827;-84
2023/07/03 06:10:15;;;;;;;4.60;3.20;;;;;;;34.19;49.34;100148.33;106499;1254;66636;-81
2023/07/03 06:13:04;;;;;;;4.50;3.50;;;;;;;34.32;48.97;100147.72;106389;1254;61408;-82
2023/07/03 06:15:52;;;;;;;5.20;3.00;;;;;;;34.43;48.14;100149.01;106571;1251;62575;-82
2023/07/03 06:18:41;;;;;;;4.40;3.10;;;;;;;34.57;47.38;100146.16;106445;1257;61263;-82
2023/07/03 06:21:29;;;;;;;3.60;2.80;;;;;;;34.59;46.92;100146.90;106453;1255;61269;-82
2023/07/03 06:24:17;;;;;;;5.70;4.40;;;;;;;34.62;47.02;100150.23;106514;1253;66028;-82
2023/07/03 06:27:06;;;;;;;4.10;3.20;;;;;;;34.88;46.70;100148.52;106502;1254;59486;-82
2023/07/03 06:29:54;;;;;;;5.40;3.40;;;;;;;35.12;45.61;100152.80;106415;1256;64040;-82
2023/07/03 06:32:43;;;;;;;4.00;3.20;;;;;;;35.26;45.04;100153.16;106534;1251;61252;-82
2023/07/03 06:35:31;;;;;;;5.20;3.30;;;;;;;35.34;44.48;100152.16;106456;1253;61311;-82
2023/07/03 06:38:19;;;;;;;4.30;3.40;;;;;;;35.33;44.59;100154.98;106474;1251;67217;-82
2023/07/03 06:41:07;;;;;;;4.60;3.20;;;;;;;35.41;45.24;100158.90;106710;1251;61850;-83
2023/07/03 06:43:56;;;;;;;3.50;3.20;;;;;;;35.55;44.79;100158.03;106624;1254;64451;-83
2023/07/03 06:46:44;;;;;;;5.90;3.10;;;;;;;35.70;44.09;100162.13;106578;1255;61205;-84
2023/07/03 06:49:32;;;;;;;6.60;3.30;;;;;;;35.93;43.57;100169.13;106649;1251;61279;-83
2023/07/03 06:52:21;;;;;;;4.80;3.50;;;;;;;36.05;42.72;100175.62;106723;1256;67196;-83
2023/07/03 06:55:09;;;;;;;4.00;3.10;;;;;;;36.22;42.47;100179.71;106900;1256;61278;-83
2023/07/03 06:58:00;;;;;;;6.20;3.60;;;;;;;36.30;41.79;100177.23;106486;1251;62456;-83
2023/07/03 07:00:48;;;;;;;4.30;3.50;;;;;;;36.25;41.36;100177.92;106504;1253;61201;-82
2023/07/03 07:03:37;;;;;;;4.70;3.30;;;;;;;36.10;41.60;100180.96;106661;1251;61174;-82
2023/07/03 07:06:27;;;;;;;5.60;3.50;;;;;;;36.13;42.24;100184.83;106624;1253;64793;-82
2023/07/03 07:09:16;;;;;;;4.20;3.20;;;;;;;36.26;41.43;100186.80;107068;1254;61262;-83
2023/07/03 07:12:04;;;;;;;5.00;3.10;;;;;;;36.25;41.04;100187.08;106617;1255;64430;-83
2023/07/03 07:14:53;;;;;;;6.30;3.90;;;;;;;36.38;41.33;100190.89;106398;1254;61332;-81
2023/07/03 07:17:44;;;;;;;4.90;3.60;;;;;;;36.63;40.64;100195.13;106460;1254;61362;-81
2023/07/03 07:20:40;;;;;;;4.70;3.30;;;;;;;36.78;40.11;100192.40;106473;1253;64896;-83
2023/07/03 07:23:28;;;;;;;4.10;3.30;;;;;;;37.11;39.13;100194.03;106376;1254;61311;-82
2023/07/03 07:26:16;;;;;;;11.50;3.80;;;;;;;37.34;38.50;100194.72;106417;1258;64139;-81
2023/07/03 07:29:05;;;;;;;4.20;3.40;;;;;;;37.47;37.77;100194.94;106411;1257;61298;-82
2023/07/03 07:31:56;;;;;;;6.70;3.40;;;;;;;37.38;37.37;100194.66;106219;1257;61176;-82
2023/07/03 07:34:44;;;;;;;4.50;3.30;;;;;;;37.28;37.67;100195.90;106655;1255;66040;-83
2023/07/03 07:37:32;;;;;;;4.30;3.20;;;;;;;37.08;37.59;100202.30;106664;1253;61129;-83
2023/07/03 07:40:20;;;;;;;5.60;3.20;;;;;;;36.96;37.93;100205.69;106579;1251;64094;-84
2023/07/03 07:43:09;;;;;;;4.70;3.70;;;;;;;36.86;38.22;100206.91;106576;1254;61346;-83
2023/07/03 07:45:57;;;;;;;4.50;3.40;;;;;;;36.88;38.55;100207.30;106463;1251;61231;-82
2023/07/03 07:48:48;;;;;;;5.20;3.30;;;;;;;37.05;38.25;100209.17;106458;1252;65813;-82
2023/07/03 07:51:36;;;;;;;4.90;3.10;;;;;;;37.19;37.89;100208.63;106676;1251;61260;-82
2023/07/03 07:54:24;;;;;;;5.00;3.40;;;;;;;37.24;37.39;100207.90;106916;1251;65234;-82
2023/07/03 07:57:12;;;;;;;6.30;3.40;;;;;;;37.36;37.34;100207.50;106760;1257;61282;-83
2023/07/03 08:00:00;;;;;;;5.90;3.60;;;;;;;37.52;37.03;100212.80;106680;1251;61228;-83
2023/07/03 08:02:48;;;;;;;4.30;3.50;;;;;;;37.68;36.65;100215.45;106643;1252;64470;-81
2023/07/03 08:05:37;;;;;;;4.10;3.30;;;;;;;37.89;35.89;100216.59;106877;1257;61727;-82
2023/07/03 08:08:26;;;;;;;4.60;3.70;;;;;;;37.78;35.58;100215.78;106738;1252;63717;-84
2023/07/03 08:11:14;;;;;;;4.60;3.40;;;;;;;37.72;35.87;100216.19;106470;1253;61279;-85
2023/07/03 08:14:02;;;;;;;3.70;3.30;;;;;;;37.76;35.91;100216.83;106710;1254;61112;-81
2023/07/03 08:16:51;;;;;;;4.60;3.20;;;;;;;37.75;36.10;100219.42;106526;1254;66087;-83
2023/07/03 08:19:39;;;;;;;4.20;3.10;;;;;;;37.88;35.85;100216.39;106536;1254;61265;-83
2023/07/03 08:22:27;;;;;;;3.80;3.30;;;;;;;38.00;35.54;100215.46;106454;1254;64938;-82
2023/07/03 08:25:16;;;;;;;4.80;3.70;;;;;;;38.23;35.47;100214.48;106325;1254;61489;-82
2023/07/03 08:28:06;;;;;;;4.90;3.40;;;;;;;38.45;35.07;100211.85;106370;1251;61236;-81
2023/07/03 08:30:54;;;;;;;4.40;3.50;;;;;;;38.58;34.95;100213.80;106580;1251;66883;-83
2023/07/03 08:33:43;;;;;;;6.00;3.60;;;;;;;38.72;34.85;100217.05;106524;1253;61339;-83
2023/07/03 08:36:32;;;;;;;4.00;3.50;;;;;;;38.67;34.31;100214.36;106514;1254;63830;-82
2023/07/03 08:39:23;;;;;;;4.40;3.30;;;;;;;38.51;34.79;100214.91;106301;1253;61349;-82
2023/07/03 08:42:19;;;;;;;4.20;3.70;;;;;;;38.57;34.67;100216.61;106463;1253;61307;-81
2023/07/03 08:45:08;;;;;;;4.50;3.40;;;;;;;38.52;34.42;100222.78;106483;1254;66412;-81
2023/07/03 08:47:56;;;;;;;4.50;3.80;;;;;;;38.43;34.94;100221.06;106273;1253;68467;-83
2023/07/03 08:50:53;;;;;;;3.30;3.00;;;;;;;38.34;35.25;100222.27;106873;1252;65455;-82
2023/07/03 08:53:43;;;;;;;5.80;3.70;;;;;;;38.47;35.17;100224.42;106480;1257;61257;-82
2023/07/03 08:56:33;;;;;;;7.50;3.70;;;;;;;38.62;35.50;100225.93;106498;1254;61328;-82
2023/07/03 08:59:21;;;;;;;4.00;3.30;;;;;;;38.68;35.17;100223.81;106442;1256;66063;-81
2023/07/03 09:02:13;;;;;;;4.40;3.30;;;;;;;38.62;34.63;100227.06;106974;1254;61845;-81
2023/07/03 09:05:10;;;;;;;4.10;3.40;;;;;;;38.53;34.02;100226.11;106320;1254;62767;-82
2023/07/03 09:08:00;;;;;;;3.40;3.10;;;;;;;38.44;33.98;100226.72;106475;1253;61362;-82
2023/07/03 09:10:49;;;;;;;3.50;3.20;;;;;;;38.42;34.29;100227.14;106410;1252;61247;-81
2023/07/03 09:13:43;;;;;;;5.20;3.30;;;;;;;38.43;34.16;100223.50;106285;1254;67091;-81
2023/07/03 09:16:31;;;;;;;4.10;3.30;;;;;;;38.57;34.39;100224.09;106412;1254;61362;-82
2023/07/03 09:19:21;;;;;;;3.50;3.20;;;;;;;38.68;34.12;100227.53;106284;1257;71815;-82
2023/07/03 09:22:21;;;;;;;4.80;3.10;;;;;;;38.76;34.03;100228.02;106691;1254;61174;-82
2023/07/03 09:25:19;;;;;;;3.90;3.20;;;;;;;38.99;34.66;100227.18;106377;1256;61240;-83
2023/07/03 09:28:09;;;;;;;3.50;3.20;;;;;;;39.04;34.22;100226.02;106367;1256;66160;-83
2023/07/03 09:30:57;;;;;;;4.40;3.50;;;;;;;38.86;33.92;100231.31;106437;1254;61237;-83
2023/07/03 09:33:45;;;;;;;3.90;3.20;;;;;;;39.07;33.79;100227.75;106618;1251;63843;-83
2023/07/03 09:36:35;;;;;;;4.10;3.40;;;;;;;39.53;33.79;100229.45;106388;1253;61308;-83
2023/07/03 09:39:23;;;;;;;3.30;2.80;;;;;;;39.69;33.58;100227.67;106550;1254;61419;-83
2023/07/03 09:42:12;;;;;;;6.30;3.70;;;;;;;39.90;32.94;100223.01;106558;1253;64601;-83
2023/07/03 09:45:00;;;;;;;5.70;3.40;;;;;;;40.03;32.33;100223.64;106154;1254;61244;-81
2023/07/03 09:47:50;;;;;;;4.60;3.20;;;;;;;39.82;32.43;100223.03;106471;1254;62622;-82
2023/07/03 09:50:39;;;;;;;3.50;3.10;;;;;;;39.73;33.19;100226.38;106680;1254;61358;-83
2023/07/03 09:53:44;;;;;;;5.30;3.10;;;;;;;39.87;32.53;100224.74;106441;1251;61086;-83
2023/07/03 09:56:33;;;;;;;3.70;3.20;;;;;;;39.96;32.32;100224.68;106390;1254;66081;-82
2023/07/03 09:59:23;;;;;;;5.20;3.30;;;;;;;40.08;31.89;100224.51;106486;1254;61428;-82
2023/07/03 10:02:12;;;;;;;4.30;2.80;;;;;;;40.29;30.82;100223.46;106771;1254;64075;-81
2023/07/03 10:05:06;;;;;;;3.10;2.60;;;;;;;40.33;30.44;100222.09;106253;1254;61257;-82
2023/07/03 10:08:03;;;;;;;3.80;3.20;;;;;;;40.33;30.20;100222.35;106645;1253;61113;-81
2023/07/03 10:10:53;;;;;;;4.40;3.50;;;;;;;40.32;29.91;100221.55;106574;1257;66039;-79
2023/07/03 10:13:47;;;;;;;;;;;;;;;40.39;29.76;100222.25;106453;1253;61237;-82
2023/07/03 10:16:36;;;;;;;4.10;3.10;;;;;;;40.53;30.19;100215.89;106636;1255;64106;-83
2023/07/03 10:19:28;;;;;;;5.40;3.60;;;;;;;40.59;29.87;100213.55;106469;1252;61355;-84
2023/07/03 10:22:21;;;;;;;5.10;3.30;;;;;;;40.61;29.76;100212.86;106596;1251;61294;-82
2023/07/03 10:25:16;;;;;;;4.70;3.90;;;;;;;40.69;29.80;100211.20;106487;1254;67544;-82
2023/07/03 10:28:12;;;;;;;5.20;3.80;;;;;;;40.66;29.16;100209.90;106298;1254;61304;-82
2023/07/03 10:31:04;;;;;;;8.00;3.50;;;;;;;40.52;29.16;100206.09;106422;1251;63889;-82
2023/07/03 10:33:58;;;;;;;4.40;3.70;;;;;;;40.50;29.09;100209.92;106272;1252;61241;-82
2023/07/03 10:36:49;;;;;;;5.80;3.40;;;;;;;40.51;29.52;100208.98;106288;1254;61203;-82
2023/07/03 10:39:53;;;;;;;4.60;3.40;;;;;;;40.69;29.68;100204.58;106500;1254;66009;-82
2023/07/03 10:42:54;;;;;;;4.70;3.40;;;;;;;41.05;29.63;100201.41;106573;1254;61343;-82
2023/07/03 10:45:42;;;;;;;5.30;4.00;;;;;;;41.49;28.98;100200.61;106498;1254;63988;-82
2023/07/03 10:48:32;;;;;;;7.00;4.00;;;;;;;41.77;28.82;100202.67;106651;1256;61285;-81
2023/07/03 10:51:52;;;;;;;7.40;4.30;;;;;;;41.89;27.73;100200.63;106865;1254;61151;-81
2023/07/03 10:54:44;;;;;;;4.00;3.60;;;;;;;41.75;27.04;100201.80;106507;1254;65921;-82
2023/07/03 10:58:00;;;;;;;4.40;4.00;;;;;;;41.51;27.28;100198.98;106477;1252;61247;-82
2023/07/03 11:01:06;;;;;;;4.40;3.50;;;;;;;41.28;27.99;100195.36;106449;1255;63799;-82
2023/07/03 11:04:03;;;;;;;9.50;4.00;;;;;;;41.46;27.94;100198.55;106575;1254;61311;-82
2023/07/03 11:07:31;;;;;;;5.90;3.90;;;;;;;41.66;27.08;100187.81;106466;1253;61230;-81
2023/07/03 11:10:30;;;;;;;4.80;3.90;;;;;;;41.90;26.29;100183.26;106835;1256;66098;-83
2023/07/03 11:13:27;;;;;;;5.90;4.00;;;;;;;42.06;26.43;100175.44;106382;1255;61212;-82
2023/07/03 11:16:16;;;;;;;6.00;4.00;;;;;;;41.91;25.87;100176.34;106619;1251;63809;-82
2023/07/03 11:19:17;;;;;;;5.30;4.20;;;;;;;41.77;26.68;100180.02;106549;1255;61154;-83
2023/07/03 11:22:15;;;;;;;4.50;4.00;;;;;;;41.73;28.24;100177.84;106547;1253;61279;-82
2023/07/03 11:25:16;;;;;;;6.70;4.70;;;;;;;41.95;28.15;100173.69;106537;1252;64885;-82
2023/07/03 11:28:19;;;;;;;6.00;4.50;;;;;;;42.22;28.76;100172.83;106352;1254;61275;-82
2023/07/03 11:31:07;;;;;;;4.90;4.40;;;;;;;42.52;28.88;100168.27;106281;1257;64042;-82
2023/07/03 11:33:55;;;;;;;4.90;4.20;;;;;;;42.57;28.20;100166.80;106290;1256;61863;-83
2023/07/03 11:36:51;;;;;;;5.80;4.80;;;;;;;42.51;28.26;100173.33;106490;1254;61336;-83
2023/07/03 11:39:49;;;;;;;7.40;4.40;;;;;;;42.54;28.17;100170.33;106249;1254;66115;-82
2023/07/03 11:42:37;;;;;;;8.50;5.20;;;;;;;42.70;28.08;100175.32;106445;1255;61361;-83
2023/07/03 11:45:29;;;;;;;9.30;5.10;;;;;;;42.82;27.54;100182.27;106492;1254;64769;-83
2023/07/03 11:48:25;;;;;;;9.20;5.00;;;;;;;42.79;27.94;100183.38;106555;1253;61410;-83
2023/07/03 11:51:15;;;;;;;7.50;5.20;;;;;;;42.92;27.68;100179.41;106446;1254;61174;-82
2023/07/03 11:54:16;;;;;;;8.10;5.70;;;;;;;43.21;27.54;100181.88;106780;1253;66089;-82
2023/07/03 11:57:09;;;;;;;8.50;6.40;;;;;;;43.36;26.42;100187.45;106268;1253;61333;-83
2023/07/03 12:00:16;;;;;;;10.80;7.30;;;;;;;43.14;26.37;100187.66;106294;1256;63719;-82
2023/07/03 12:03:05;;;;;;;11.80;7.10;;;;;;;42.86;27.67;100188.63;106385;1251;61273;-83
2023/07/03 12:05:54;;;;;;;8.40;6.90;;;;;;;42.56;28.21;100191.23;106340;1253;61340;-82
2023/07/03 12:08:48;;;;;;;9.10;6.80;;;;;;;42.26;28.49;100190.24;106498;1257;66042;-82
2023/07/03 12:12:03;;;;;;;9.40;6.80;;;;;;;42.16;28.74;100194.27;106253;1254;61814;-82
2023/07/03 12:15:11;;;;;;;10.70;8.30;;;;;;;41.88;29.41;100199.09;106367;1254;62829;-83
2023/07/03 12:18:02;;;;;;;8.50;7.10;;;;;;;41.64;29.85;100199.69;106578;1254;61227;-82
2023/07/03 12:21:01;;;;;;;9.70;7.10;;;;;;;41.31;30.40;100199.58;107196;1255;61208;-82
2023/07/03 12:23:51;;;;;;;9.20;6.30;;;;;;;41.21;29.81;100201.73;106574;1255;66137;-82
2023/07/03 14:43:38;;;;;;;9.40;6.30;;;;;;;44.26;24.52;100211.05;106385;1251;61256;-81
2023/07/03 14:46:27;;;;;;;7.10;5.60;;;;;;;44.12;24.36;100207.66;106382;1255;64083;-82
2023/07/03 14:49:15;;;;;;;9.40;6.80;;;;;;;43.93;24.46;100205.34;106370;1253;61228;-82
2023/07/03 14:52:03;;;;;;;14.90;7.30;;;;;;;43.40;24.97;100209.16;106528;1253;61170;-85
2023/07/03 14:54:51;;;;;;;9.50;6.30;;;;;;;42.88;25.18;100213.75;106313;1256;66773;-85
2023/07/03 14:57:39;;;;;;;7.70;5.70;;;;;;;42.33;25.57;100212.97;106296;1253;61260;-85
2023/07/03 15:00:27;;;;;;;9.10;6.40;;;;;;;41.72;26.38;100216.05;106305;1252;64120;-84
2023/07/03 15:03:15;;;;;;;12.50;6.70;;;;;;;41.45;26.92;100216.36;106377;1254;61279;-85
2023/07/03 15:06:06;;;;;;;12.20;6.70;;;;;;;41.40;27.04;100216.39;106416;1255;59221;-82
2023/07/03 15:08:55;;;;;;;9.90;6.50;;;;;;;41.36;26.96;100222.13;106147;1256;67025;-82
2023/07/03 15:11:43;;;;;;;9.00;6.20;;;;;;;41.19;26.84;100224.36;106367;1254;61221;-80
2023/07/03 15:14:32;;;;;;;9.50;5.90;;;;;;;40.88;26.97;100227.73;106452;1254;62808;-83
2023/07/03 15:17:20;;;;;;;7.50;5.90;;;;;;;40.78;26.92;100230.41;106520;1254;61111;-84
2023/07/03 15:20:08;;;;;;;11.40;6.30;;;;;;;40.63;27.07;100232.94;106483;1257;60062;-85
2023/07/03 15:22:56;;;;;;;9.30;6.30;;;;;;;40.68;26.88;100238.59;106334;1256;66029;-82
2023/07/03 15:25:44;;;;;;;11.20;6.10;;;;;;;40.54;27.18;100243.34;106609;1256;61260;-82
2023/07/03 15:28:32;;;;;;;7.90;6.40;;;;;;;40.54;27.60;100245.28;106165;1260;64118;-81
2023/07/03 15:31:21;;;;;;;8.60;6.10;;;;;;;40.44;27.79;100246.19;106389;1251;61255;-84
2023/07/03 15:34:09;;;;;;;8.70;5.70;;;;;;;40.21;28.04;100248.70;106302;1258;61260;-85
2023/07/03 15:36:57;;;;;;;7.10;5.30;;;;;;;39.99;28.39;100248.11;106289;1256;64505;-85
2023/07/03 15:39:45;;;;;;;8.70;6.30;;;;;;;39.93;28.24;100246.92;106418;1256;61231;-82
2023/07/03 15:42:33;;;;;;;8.90;5.90;;;;;;;39.90;28.25;100249.83;106274;1259;63810;-85
2023/07/03 15:45:22;;;;;;;10.80;6.20;;;;;;;39.76;28.71;100253.00;106321;1254;61311;-81
2023/07/03 15:48:10;;;;;;;9.30;5.90;;;;;;;39.59;29.17;100249.19;106314;1256;61182;-85
2023/07/03 15:50:58;;;;;;;7.10;5.50;;;;;;;39.58;28.89;100250.14;106562;1254;66055;-84
2023/07/03 15:53:46;;;;;;;6.70;5.10;;;;;;;39.66;28.49;100251.85;106409;1257;59667;-80
2023/07/03 15:56:35;;;;;;;6.40;4.90;;;;;;;39.57;28.32;100250.40;106274;1257;62754;-82
2023/07/03 15:59:24;;;;;;;9.40;5.90;;;;;;;39.46;28.43;100250.19;106353;1253;61198;-85
2023/07/03 16:02:12;;;;;;;6.90;4.90;;;;;;;39.30;28.88;100255.16;106305;1254;61254;-82
2023/07/03 16:05:00;;;;;;;8.60;5.20;;;;;;;39.07;28.95;100255.95;106314;1254;66069;-82
2023/07/03 16:07:51;;;;;;;7.50;5.20;;;;;;;38.90;28.76;100261.86;106326;1253;60112;-82
2023/07/03 16:10:41;;;;;;;7.10;4.90;;;;;;;38.77;29.06;100264.85;106374;1254;64976;-82
2023/07/03 16:13:30;;;;;;;8.10;4.90;;;;;;;38.71;29.19;100269.14;106232;1259;61336;-86
2023/07/03 16:16:20;;;;;;;7.60;5.00;;;;;;;38.60;29.41;100271.80;106269;1256;180308;-86
2023/07/03 16:19:07;;;;;;;7.50;4.90;;;;;;;38.48;29.76;100282.55;106520;1254;66387;-86
2023/07/03 16:21:56;;;;;;;8.30;5.10;;;;;;;38.35;30.06;100290.30;106300;1258;61315;-82
2023/07/03 16:24:49;;;;;;;11.10;5.50;;;;;;;38.32;30.46;100294.63;106386;1255;63742;-84
2023/07/03 16:27:38;;;;;;;7.70;5.10;;;;;;;38.23;30.78;100298.42;106399;1254;61231;-85
2023/07/03 16:30:27;;;;;;;8.70;5.00;;;;;;;38.07;30.89;100309.48;106352;1255;61385;-85
2023/07/03 16:33:15;;;;;;;6.80;5.90;;;;;;;37.93;31.19;100310.47;106337;1257;67196;-81
2023/07/03 16:36:05;;;;;;;8.50;5.80;;;;;;;37.78;31.31;100314.34;106555;1254;61362;-85
2023/07/03 16:39:03;;;;;;;9.80;5.80;;;;;;;37.76;31.92;100315.25;106129;1258;65097;-85
2023/07/03 16:41:51;;;;;;;10.70;6.60;;;;;;;37.62;32.60;100317.42;106322;1256;61323;-86
2023/07/03 16:44:40;;;;;;;9.10;5.70;;;;;;;37.54;33.02;100321.77;106338;1254;61330;-81
2023/07/03 16:47:28;;;;;;;7.10;5.10;;;;;;;37.56;33.07;100327.60;106452;1256;67203;-82
2023/07/03 16:50:16;;;;;;;9.90;5.40;;;;;;;37.54;33.44;100331.44;106372;1254;61151;-85
2023/07/03 16:53:05;;;;;;;7.50;5.30;;;;;;;37.47;33.67;100333.70;106428;1256;64070;-81
2023/07/03 16:56:04;;;;;;;7.60;5.80;;;;;;;37.39;33.94;100339.02;106385;1253;61352;-81
2023/07/03 16:58:53;;;;;;;9.20;5.30;;;;;;;37.39;34.49;100342.69;106258;1256;61294;-81
2023/07/03 17:01:43;;;;;;;10.60;6.20;;;;;;;37.46;34.95;100347.44;106310;1253;64726;-85
2023/07/03 17:04:31;;;;;;;10.60;6.40;;;;;;;37.54;35.15;100360.52;106416;1255;61955;-82
2023/07/03 17:07:19;;;;;;;8.10;6.30;;;;;;;37.34;35.67;100371.86;106232;1254;63705;-85
2023/07/03 17:10:07;;;;;;;10.10;5.80;;;;;;;37.06;36.92;100381.05;106349;1257;61421;-82
2023/07/03 17:12:55;;;;;;;7.80;5.90;;;;;;;36.75;38.52;100387.87;106250;1259;61313;-82
2023/07/03 17:15:43;;;;;;;7.70;5.80;;;;;;;36.24;40.30;100390.91;106342;1256;65960;-85
2023/07/03 17:18:30;;;;;;;8.30;6.10;;;;;;;35.88;42.81;100400.56;106276;1257;61330;-82
2023/07/03 17:21:18;;;;;;;7.60;5.40;;;;;;;35.53;44.79;100406.31;106370;1255;63914;-81
2023/07/03 17:24:07;;;;;;;8.30;5.30;;;;;;;35.11;46.81;100412.10;106348;1254;61240;-87
2023/07/03 17:26:54;;;;;;;6.10;4.20;;;;;;;34.87;48.16;100410.80;106363;1257;61253;-86
2023/07/03 17:29:42;;;;;;;6.60;4.60;;;;;;;34.70;48.06;100418.74;106690;1254;67317;-85
2023/07/03 17:32:30;;;;;;;5.50;4.70;;;;;;;34.70;47.98;100426.52;106433;1255;61872;-88
2023/07/03 17:35:18;;;;;;;6.30;4.90;;;;;;;34.61;48.24;100428.45;106834;1254;64423;-87
2023/07/03 17:38:08;;;;;;;6.60;4.60;;;;;;;34.38;48.90;100433.66;106694;1252;61112;-86
2023/07/03 17:40:56;;;;;;;6.60;5.00;;;;;;;34.13;49.84;100432.88;106424;1253;60268;-87
2023/07/03 17:43:45;;;;;;;6.40;4.50;;;;;;;33.96;50.44;100439.73;106781;1254;65769;-87
2023/07/03 17:46:33;;;;;;;5.80;4.60;;;;;;;33.98;50.42;100439.61;106733;1256;61319;-88
2023/07/03 17:49:21;;;;;;;5.50;4.50;;;;;;;33.94;50.63;100439.78;106594;1255;63919;-88
2023/07/03 17:52:09;;;;;;;6.50;4.70;;;;;;;33.81;51.09;100441.80;106873;1254;61265;-87
2023/07/03 17:54:58;;;;;;;8.20;5.00;;;;;;;33.64;52.05;100447.59;106571;1254;61910;-86
2023/07/03 17:57:49;;;;;;;6.10;4.40;;;;;;;33.55;52.51;100450.53;106655;1257;67283;-86
2023/07/03 18:00:38;;;;;;;8.20;5.40;;;;;;;33.37;53.63;100455.18;106485;1257;61228;-86
2023/07/03 18:03:41;;;;;;;8.00;5.40;;;;;;;33.25;54.68;100459.23;106672;1257;62887;-86